Time;durP1;ratioP1;P1;durP2;ratioP2;P2;SDS_P1;SDS_P2;PMS_P1;PMS_P2;Temp;Humidity;BMP_temperature;BMP_pressure;BME280_temperature;BME280_humidity;BME280_pressure;Samples;Min_cycle;Max_cycle;Signal;HPM_P1;HPM_P2
2021/07/04 00:01:26;;;;;;;11.52;7.82;;;;;;;18.75;97.58;98518.41;3474711;28;20106;-42
2021/07/04 00:03:07;;;;;;;8.85;7.75;;;;;;;18.73;97.47;98517.63;3474102;28;20045;-43
2021/07/04 00:04:49;;;;;;;8.95;7.47;;;;;;;18.70;97.64;98515.09;3476411;28;20077;-43
2021/07/04 00:06:30;;;;;;;9.30;7.15;;;;;;;18.68;98.10;98512.53;3476338;28;20129;-43
2021/07/04 00:08:14;;;;;;;10.63;7.88;;;;;;;18.66;97.94;98505.66;3478037;28;20524;-44
2021/07/04 00:09:55;;;;;;;8.48;7.65;;;;;;;18.63;98.51;98510.09;3478051;28;20130;-43
2021/07/04 00:11:37;;;;;;;11.25;8.52;;;;;;;18.61;98.34;98506.69;3475054;28;20151;-42
2021/07/04 00:13:18;;;;;;;10.00;8.30;;;;;;;18.58;98.87;98503.31;3476882;28;20199;-43
2021/07/04 00:15:00;;;;;;;10.40;8.48;;;;;;;18.56;98.83;98510.38;3476383;28;21111;-43
2021/07/04 00:16:42;;;;;;;12.32;8.65;;;;;;;18.55;98.91;98513.94;3476897;28;20073;-43
2021/07/04 00:18:25;;;;;;;9.55;7.50;;;;;;;18.54;99.08;98512.19;3476370;28;20063;-42
2021/07/04 00:20:12;;;;;;;8.88;7.82;;;;;;;18.54;99.40;98513.09;3475573;28;20080;-43
2021/07/04 00:21:53;;;;;;;10.45;8.20;;;;;;;18.52;99.18;98516.66;3475530;28;20128;-44
2021/07/04 00:23:36;;;;;;;9.80;7.95;;;;;;;18.51;99.74;98512.34;3476477;28;20138;-42
2021/07/04 00:25:18;;;;;;;16.83;8.30;;;;;;;18.48;99.60;98513.28;3476709;28;20476;-42
2021/07/04 00:26:59;;;;;;;11.80;8.57;;;;;;;18.47;99.59;98516.84;3474435;28;20128;-43
2021/07/04 00:28:40;;;;;;;11.38;7.53;;;;;;;18.46;99.68;98524.78;3476105;28;20079;-42
2021/07/04 00:30:22;;;;;;;9.02;7.82;;;;;;;18.42;99.90;98518.78;3478281;28;20383;-43
2021/07/04 00:32:05;;;;;;;8.90;7.95;;;;;;;18.41;99.94;98519.69;3477315;28;20132;-43
2021/07/04 00:33:46;;;;;;;10.82;8.60;;;;;;;18.40;100.00;98518.84;3476725;28;20529;-42
2021/07/04 00:35:28;;;;;;;12.07;8.25;;;;;;;18.39;100.00;98517.13;3475408;28;20054;-43
2021/07/04 00:37:10;;;;;;;9.88;8.10;;;;;;;18.40;100.00;98517.97;3478369;28;20084;-43
2021/07/04 00:38:52;;;;;;;10.32;8.70;;;;;;;18.39;100.00;98516.28;3476620;28;20077;-43
2021/07/04 00:40:33;;;;;;;11.82;8.77;;;;;;;18.37;100.00;98521.56;3476153;28;20537;-43
2021/07/04 00:42:15;;;;;;;9.98;8.60;;;;;;;18.37;100.00;98520.72;3476062;28;20084;-44
2021/07/04 00:43:56;;;;;;;10.45;7.85;;;;;;;18.37;100.00;98521.56;3476912;28;20426;-43
2021/07/04 00:45:38;;;;;;;12.35;8.95;;;;;;;18.40;100.00;98523.22;3475568;28;20140;-42
2021/07/04 00:47:19;;;;;;;11.88;8.93;;;;;;;18.40;100.00;98525.84;3474609;28;20072;-43
2021/07/04 00:49:01;;;;;;;12.95;8.75;;;;;;;18.40;100.00;98531.09;3474802;28;20054;-43
2021/07/04 00:50:43;;;;;;;12.10;8.50;;;;;;;18.40;100.00;98525.84;3476968;28;20052;-43
2021/07/04 00:52:24;;;;;;;9.70;8.38;;;;;;;18.41;100.00;98532.81;3477058;28;20080;-43
2021/07/04 00:54:06;;;;;;;11.13;8.77;;;;;;;18.41;100.00;98531.03;3471811;28;20418;-45
2021/07/04 00:55:48;;;;;;;10.68;8.23;;;;;;;18.42;100.00;98530.16;3483479;28;20059;-44
2021/07/04 00:57:29;;;;;;;9.98;8.38;;;;;;;18.43;100.00;98526.59;3476826;28;20041;-43
2021/07/04 00:59:10;;;;;;;10.00;7.97;;;;;;;18.43;99.93;98521.34;3473894;28;20583;-46
2021/07/04 01:00:52;;;;;;;9.60;8.60;;;;;;;18.41;99.27;98525.78;3477555;28;20136;-44
2021/07/04 01:02:33;;;;;;;12.15;8.10;;;;;;;18.43;99.71;98520.47;3480209;28;20053;-44
2021/07/04 01:04:14;;;;;;;12.80;8.80;;;;;;;18.45;99.63;98518.66;3480581;28;20489;-46
2021/07/04 01:05:56;;;;;;;10.93;8.75;;;;;;;18.43;99.70;98520.47;3478973;28;20068;-44
2021/07/04 01:07:38;;;;;;;11.43;8.70;;;;;;;18.42;100.00;98516.16;3483283;28;20085;-44
2021/07/04 01:09:20;;;;;;;10.75;8.38;;;;;;;18.40;99.65;98510.09;3478822;28;20076;-46
2021/07/04 01:11:04;;;;;;;11.10;8.65;;;;;;;18.40;99.91;98510.97;3483395;28;20164;-45
2021/07/04 01:12:47;;;;;;;9.65;8.02;;;;;;;18.40;99.52;98516.22;3480664;28;20572;-44
2021/07/04 01:14:28;;;;;;;11.57;8.43;;;;;;;18.40;99.40;98516.22;3480908;28;20045;-44
2021/07/04 01:16:11;;;;;;;11.60;8.27;;;;;;;18.40;99.12;98518.84;3479593;28;20290;-46
2021/07/04 01:17:55;;;;;;;11.25;7.30;;;;;;;18.39;97.87;98517.13;3478565;28;20045;-45
2021/07/04 01:19:36;;;;;;;10.68;7.85;;;;;;;18.39;98.04;98511.88;3483069;28;20499;-44
2021/07/04 01:21:20;;;;;;;11.65;8.50;;;;;;;18.36;98.11;98511.13;3475993;28;20514;-44
2021/07/04 01:23:05;;;;;;;11.02;8.80;;;;;;;18.31;98.15;98508.69;3469679;28;20061;-45
2021/07/04 01:24:46;;;;;;;11.60;8.60;;;;;;;18.27;99.18;98514.09;3472174;28;20466;-44
2021/07/04 01:26:28;;;;;;;11.77;9.27;;;;;;;18.23;99.75;98508.94;3470963;28;20041;-45
2021/07/04 01:28:09;;;;;;;12.43;8.68;;;;;;;18.19;100.00;98512.59;3481410;28;20139;-44
2021/07/04 01:29:50;;;;;;;13.43;8.95;;;;;;;18.17;100.00;98513.56;3478563;28;20085;-45
2021/07/04 01:31:32;;;;;;;11.57;9.48;;;;;;;18.14;100.00;98509.28;3482902;28;20503;-49
2021/07/04 01:33:13;;;;;;;11.98;9.20;;;;;;;18.15;100.00;98508.34;3476943;28;20049;-47
2021/07/04 01:34:54;;;;;;;13.07;9.05;;;;;;;18.16;100.00;98503.97;3482712;28;20048;-45
2021/07/04 01:36:38;;;;;;;11.07;8.63;;;;;;;18.14;100.00;98504.03;3478998;28;20088;-45
2021/07/04 01:38:20;;;;;;;11.10;8.82;;;;;;;18.14;100.00;98497.94;3480272;28;20140;-45
2021/07/04 01:40:02;;;;;;;12.82;9.23;;;;;;;18.14;100.00;98495.31;3469036;28;20079;-44
2021/07/04 01:41:44;;;;;;;13.25;9.85;;;;;;;18.14;100.00;98490.91;3472753;28;20068;-45
2021/07/04 01:43:25;;;;;;;13.30;9.40;;;;;;;18.16;100.00;98499.56;3469221;28;20080;-44
2021/07/04 01:45:08;;;;;;;14.13;9.88;;;;;;;18.17;100.00;98495.19;3471413;28;20183;-46
2021/07/04 01:46:50;;;;;;;10.82;9.52;;;;;;;18.17;100.00;98493.44;3469134;28;20052;-44
2021/07/04 01:48:31;;;;;;;12.95;9.65;;;;;;;18.17;100.00;98497.81;3470138;28;20426;-46
2021/07/04 01:50:19;;;;;;;11.63;9.23;;;;;;;18.15;100.00;98495.22;3470688;28;20073;-45
2021/07/04 01:52:01;;;;;;;12.55;9.55;;;;;;;18.15;100.00;98492.59;3482311;28;20528;-44
2021/07/04 01:53:43;;;;;;;10.15;8.77;;;;;;;18.16;100.00;98502.19;3472586;28;20067;-45
2021/07/04 01:55:25;;;;;;;11.10;9.38;;;;;;;18.17;100.00;98505.69;3482356;28;20509;-45
2021/07/04 01:57:11;;;;;;;15.15;9.40;;;;;;;18.18;100.00;98504.78;3474005;28;20056;-44
2021/07/04 01:58:52;;;;;;;10.80;8.88;;;;;;;18.19;100.00;98507.34;3468754;28;20132;-45
2021/07/04 02:00:36;;;;;;;13.40;10.02;;;;;;;18.18;100.00;98500.38;3479194;28;20084;-45
2021/07/04 02:02:18;;;;;;;12.45;9.15;;;;;;;18.18;100.00;98508.25;3478135;28;20569;-44
2021/07/04 02:03:59;;;;;;;13.15;9.07;;;;;;;18.16;100.00;98504.81;3482702;28;20129;-46
2021/07/04 02:05:41;;;;;;;16.52;10.13;;;;;;;18.15;100.00;98504.88;3478086;28;20668;-44
2021/07/04 02:07:22;;;;;;;11.95;9.75;;;;;;;18.15;100.00;98513.59;3482614;28;20079;-44
2021/07/04 02:09:04;;;;;;;14.38;9.63;;;;;;;18.13;100.00;98512.81;3478156;28;20148;-44
2021/07/04 02:10:46;;;;;;;15.95;10.30;;;;;;;18.13;100.00;98515.44;3480854;28;20134;-46
2021/07/04 02:12:27;;;;;;;12.68;9.38;;;;;;;18.15;100.00;98516.22;3471468;28;20050;-44
2021/07/04 02:14:09;;;;;;;13.80;10.30;;;;;;;18.17;100.00;98508.31;3472365;28;20073;-45
2021/07/04 02:15:50;;;;;;;13.93;10.05;;;;;;;18.17;100.00;98510.94;3468937;28;20084;-45
2021/07/04 02:17:34;;;;;;;12.93;9.77;;;;;;;18.16;100.00;98511.84;3469842;28;20123;-44
2021/07/04 02:19:15;;;;;;;14.02;9.90;;;;;;;18.16;100.00;98515.31;3468615;28;20072;-44
2021/07/04 02:20:57;;;;;;;11.82;10.00;;;;;;;18.16;100.00;98519.72;3472270;28;20085;-44
2021/07/04 02:22:38;;;;;;;14.38;9.93;;;;;;;18.17;100.00;98526.69;3467981;28;20060;-45
2021/07/04 02:24:21;;;;;;;14.70;10.52;;;;;;;18.17;100.00;98526.69;3479677;28;20052;-44
2021/07/04 02:26:03;;;;;;;12.80;10.23;;;;;;;18.18;100.00;98529.25;3478935;28;20045;-44
2021/07/04 02:27:44;;;;;;;14.02;10.25;;;;;;;18.19;100.00;98528.34;3468551;28;20087;-45
2021/07/04 02:29:26;;;;;;;14.90;10.50;;;;;;;18.22;100.00;98533.50;3473695;28;20536;-44
2021/07/04 02:31:07;;;;;;;13.90;10.68;;;;;;;18.27;100.00;98545.59;3482416;28;20076;-44
2021/07/04 02:32:49;;;;;;;12.00;9.80;;;;;;;18.29;100.00;98543.75;3471724;28;20045;-46
2021/07/04 02:34:30;;;;;;;14.30;10.52;;;;;;;18.30;100.00;98551.59;3469389;28;20081;-44
2021/07/04 02:36:12;;;;;;;14.75;10.27;;;;;;;18.30;100.00;98545.50;3469859;28;20545;-45
2021/07/04 02:37:53;;;;;;;13.20;10.90;;;;;;;18.32;100.00;98547.13;3470384;28;20068;-45
2021/07/04 02:39:35;;;;;;;12.27;10.35;;;;;;;18.35;100.00;98551.44;3482096;28;20627;-44
2021/07/04 02:41:16;;;;;;;13.35;11.32;;;;;;;18.37;100.00;98554.84;3477725;28;20509;-45
2021/07/04 02:42:59;;;;;;;13.57;9.98;;;;;;;18.39;100.00;98556.50;3481220;28;20138;-45
2021/07/04 02:44:40;;;;;;;13.73;11.30;;;;;;;18.42;100.00;98553.78;3472713;28;20139;-45
2021/07/04 02:46:21;;;;;;;13.25;10.57;;;;;;;18.43;100.00;98560.72;3469352;28;20056;-44
2021/07/04 02:48:03;;;;;;;12.10;10.77;;;;;;;18.47;100.00;98558.00;3479658;28;20055;-45
2021/07/04 02:49:45;;;;;;;13.73;10.57;;;;;;;18.48;100.00;98563.19;3476358;28;20072;-45
2021/07/04 02:51:26;;;;;;;14.32;11.30;;;;;;;18.50;100.00;98552.63;3481661;28;20076;-44
2021/07/04 02:53:09;;;;;;;12.82;10.70;;;;;;;18.53;100.00;98557.78;3479397;28;20075;-44
2021/07/04 02:54:51;;;;;;;18.75;11.13;;;;;;;18.54;100.00;98564.72;3482229;28;20089;-46
2021/07/04 02:56:33;;;;;;;15.05;11.63;;;;;;;18.54;100.00;98570.88;3477755;28;20087;-45
2021/07/04 02:58:14;;;;;;;15.05;11.57;;;;;;;18.53;100.00;98571.75;3480018;28;20553;-45
2021/07/04 02:59:55;;;;;;;13.50;11.52;;;;;;;18.53;100.00;98568.28;3479915;28;20139;-45
2021/07/04 03:01:37;;;;;;;14.75;10.95;;;;;;;18.54;100.00;98570.88;3472945;28;20068;-44
2021/07/04 03:03:18;;;;;;;13.95;11.60;;;;;;;18.55;100.00;98569.94;3480385;28;20056;-46
2021/07/04 03:05:00;;;;;;;17.25;11.73;;;;;;;18.56;100.00;98573.41;3474583;28;20502;-44
2021/07/04 03:06:41;;;;;;;13.00;10.43;;;;;;;18.56;100.00;98566.41;3467233;28;20141;-45
2021/07/04 03:08:22;;;;;;;14.43;11.52;;;;;;;18.56;100.00;98574.28;3470348;28;20145;-44
2021/07/04 03:10:05;;;;;;;18.38;11.63;;;;;;;18.57;100.00;98565.47;3466985;28;20408;-45
2021/07/04 03:11:46;;;;;;;15.52;12.48;;;;;;;18.62;100.00;98570.56;3477415;28;20083;-45
2021/07/04 03:13:27;;;;;;;15.18;11.20;;;;;;;18.66;100.00;98576.56;3476469;28;20051;-44
2021/07/04 03:15:11;;;;;;;14.02;11.23;;;;;;;18.70;100.00;98581.66;3481597;28;20053;-44
2021/07/04 03:16:53;;;;;;;13.75;11.18;;;;;;;18.74;100.00;98575.38;3477441;28;20079;-44
2021/07/04 03:18:34;;;;;;;16.85;12.30;;;;;;;18.79;100.00;98577.84;3481862;28;20531;-45
2021/07/04 03:20:16;;;;;;;13.02;10.48;;;;;;;18.84;100.00;98577.66;3472624;28;20077;-45
2021/07/04 03:21:57;;;;;;;12.98;10.98;;;;;;;18.89;100.00;98586.25;3468955;28;20111;-44
2021/07/04 03:23:38;;;;;;;16.30;13.15;;;;;;;18.93;100.00;98587.84;3469728;28;20049;-44
2021/07/04 03:25:20;;;;;;;13.70;10.70;;;;;;;18.96;100.00;98583.31;3470256;28;20433;-44
2021/07/04 03:27:02;;;;;;;14.10;11.65;;;;;;;18.99;100.00;98579.75;3468618;28;20096;-44
2021/07/04 03:28:43;;;;;;;15.80;11.45;;;;;;;19.05;100.00;98592.63;3470895;28;20084;-45
2021/07/04 03:30:25;;;;;;;14.85;12.15;;;;;;;19.05;100.00;98584.75;3468040;28;20099;-44
2021/07/04 03:32:06;;;;;;;15.15;11.50;;;;;;;19.07;100.00;98584.69;3470010;28;20510;-45
2021/07/04 03:33:48;;;;;;;15.45;12.18;;;;;;;19.09;100.00;98581.09;3469127;28;20438;-44
2021/07/04 03:35:29;;;;;;;15.77;12.52;;;;;;;19.11;100.00;98586.31;3469273;28;20472;-45
2021/07/04 03:37:11;;;;;;;18.30;12.32;;;;;;;19.15;100.00;98591.38;3470018;28;20080;-44
2021/07/04 03:38:52;;;;;;;16.90;13.25;;;;;;;19.18;100.00;98591.25;3484340;28;20084;-44
2021/07/04 03:40:34;;;;;;;17.00;12.20;;;;;;;19.21;100.00;98592.91;3479791;28;20083;-44
2021/07/04 03:42:15;;;;;;;17.70;12.38;;;;;;;19.25;100.00;98584.00;3484098;28;20076;-46
2021/07/04 03:43:59;;;;;;;11.90;10.57;;;;;;;19.31;100.00;98593.41;3473724;28;20084;-45
2021/07/04 03:45:40;;;;;;;;;;;;;;;19.35;100.00;98589.72;3471348;28;20084;-45
2021/07/04 03:47:25;;;;;;;15.93;11.80;;;;;;;19.43;100.00;98594.72;3480570;28;19936;-46
2021/07/04 03:49:06;;;;;;;14.65;12.48;;;;;;;19.51;100.00;98595.25;3479603;28;20561;-47
2021/07/04 03:50:48;;;;;;;17.65;13.23;;;;;;;19.58;100.00;98601.97;3484117;28;20106;-44
2021/07/04 03:52:29;;;;;;;13.50;9.98;;;;;;;19.63;99.95;98600.00;3475370;28;20130;-47
2021/07/04 03:54:10;;;;;;;14.75;11.77;;;;;;;19.69;100.00;98596.28;3470572;28;20087;-44
2021/07/04 03:55:52;;;;;;;15.05;11.80;;;;;;;19.77;99.98;98591.56;3474117;28;20148;-44
2021/07/04 03:57:34;;;;;;;15.43;11.13;;;;;;;19.84;99.79;98597.47;3470779;28;20081;-44
2021/07/04 03:59:15;;;;;;;14.75;11.10;;;;;;;19.88;99.42;98594.66;3474113;28;20057;-45
2021/07/04 04:00:56;;;;;;;14.30;10.98;;;;;;;19.93;98.51;98600.53;3472713;28;20037;-45
2021/07/04 04:02:37;;;;;;;13.43;11.57;;;;;;;20.00;98.91;98593.25;3480611;28;20105;-45
2021/07/04 04:04:19;;;;;;;15.80;11.10;;;;;;;20.10;98.72;98601.63;3476777;28;20053;-45
2021/07/04 04:06:01;;;;;;;15.40;10.93;;;;;;;20.17;98.14;98596.97;3470261;28;20053;-44
2021/07/04 04:07:43;;;;;;;12.20;10.75;;;;;;;20.23;98.28;98602.81;3478453;28;20085;-47
2021/07/04 04:09:24;;;;;;;14.73;10.05;;;;;;;20.31;97.24;98602.50;3482206;28;20091;-45
2021/07/04 04:11:06;;;;;;;15.25;11.05;;;;;;;20.40;97.70;98603.88;3471870;28;20052;-44
2021/07/04 04:12:47;;;;;;;14.55;10.38;;;;;;;20.50;97.52;98597.25;3473405;28;20529;-45
2021/07/04 04:14:28;;;;;;;12.27;10.90;;;;;;;20.61;97.06;98596.81;3469370;28;20572;-44
2021/07/04 04:16:10;;;;;;;12.13;9.82;;;;;;;20.70;96.26;98596.38;3474724;28;20145;-45
2021/07/04 04:17:53;;;;;;;11.35;9.88;;;;;;;20.76;95.50;98593.50;3483846;28;20243;-45
2021/07/04 04:19:35;;;;;;;13.77;10.65;;;;;;;20.84;95.25;98595.81;3479140;28;20081;-46
2021/07/04 04:21:16;;;;;;;13.00;8.65;;;;;;;20.89;93.56;98593.81;3482080;28;20577;-44
2021/07/04 04:22:58;;;;;;;12.23;10.32;;;;;;;20.96;94.14;98603.16;3480066;28;20525;-45
2021/07/04 04:24:39;;;;;;;12.57;9.55;;;;;;;21.03;93.02;98601.06;3479379;28;20525;-44
2021/07/04 04:26:21;;;;;;;11.40;10.00;;;;;;;21.05;93.55;98600.06;3482506;28;20144;-45
2021/07/04 04:28:04;;;;;;;10.63;9.00;;;;;;;21.13;93.88;98604.97;3479261;28;20084;-44
2021/07/04 04:29:46;;;;;;;12.75;9.75;;;;;;;21.18;91.95;98605.63;3483837;28;20080;-45
2021/07/04 04:31:27;;;;;;;13.25;9.80;;;;;;;21.29;92.93;98606.91;3474825;28;20140;-45
2021/07/04 04:33:09;;;;;;;11.55;10.27;;;;;;;21.39;93.21;98613.47;3480521;28;20064;-45
2021/07/04 04:34:50;;;;;;;11.77;9.65;;;;;;;21.50;91.53;98613.81;3475253;28;20071;-45
2021/07/04 04:36:32;;;;;;;9.57;8.55;;;;;;;21.59;91.03;98610.72;3474927;28;20136;-44
2021/07/04 04:38:13;;;;;;;12.88;9.93;;;;;;;21.71;91.99;98608.44;3476506;28;20073;-45
2021/07/04 04:39:55;;;;;;;10.95;9.05;;;;;;;21.81;91.05;98610.56;3474095;28;20081;-45
2021/07/04 04:41:37;;;;;;;10.90;8.80;;;;;;;21.91;89.49;98604.81;3477161;28;20585;-47
2021/07/04 04:43:19;;;;;;;9.50;8.32;;;;;;;22.03;90.57;98601.56;3475066;28;20084;-45
2021/07/04 04:45:00;;;;;;;9.48;8.45;;;;;;;22.12;88.23;98605.53;3475673;28;20046;-44
2021/07/04 04:46:41;;;;;;;10.98;9.50;;;;;;;22.21;88.06;98610.34;3476593;28;20132;-44
2021/07/04 04:48:23;;;;;;;11.43;8.77;;;;;;;22.36;88.76;98608.72;3473874;28;20497;-48
2021/07/04 04:50:06;;;;;;;12.15;9.13;;;;;;;22.47;87.41;98613.47;3478043;28;20497;-45
2021/07/04 04:51:47;;;;;;;11.02;8.70;;;;;;;22.58;87.02;98619.03;3473462;28;20081;-44
2021/07/04 04:53:28;;;;;;;12.15;9.52;;;;;;;22.65;85.45;98609.00;3475596;28;20072;-45
2021/07/04 04:55:11;;;;;;;12.93;9.45;;;;;;;22.78;86.84;98618.00;3476026;28;20202;-44
2021/07/04 04:57:11;;;;;;;12.43;9.88;;;;;;;22.89;85.62;98618.28;3477064;28;20107;-44
2021/07/04 04:58:53;;;;;;;12.23;9.50;;;;;;;22.90;85.94;98613.81;3478766;28;20076;-44
2021/07/04 05:00:34;;;;;;;10.93;8.38;;;;;;;22.91;85.77;98611.09;3476885;28;20077;-44
2021/07/04 05:02:15;;;;;;;9.80;8.77;;;;;;;22.92;84.35;98604.06;3475720;28;20479;-44
2021/07/04 05:03:57;;;;;;;13.02;9.25;;;;;;;22.95;83.54;98609.16;3476311;28;20081;-45
2021/07/04 05:05:39;;;;;;;11.52;9.38;;;;;;;23.03;84.81;98606.09;3476480;28;20056;-44
2021/07/04 05:07:21;;;;;;;15.37;9.20;;;;;;;23.12;84.95;98605.59;3477148;28;20106;-44
2021/07/04 05:09:03;;;;;;;10.05;8.55;;;;;;;23.19;84.64;98599.03;3476073;28;20574;-46
2021/07/04 05:10:44;;;;;;;10.23;8.68;;;;;;;23.22;83.40;98606.81;3483452;28;20072;-44
2021/07/04 05:12:26;;;;;;;10.45;8.75;;;;;;;23.29;83.44;98596.78;3471514;28;20081;-44
2021/07/04 05:14:08;;;;;;;12.68;9.00;;;;;;;23.35;81.89;98599.06;3470501;28;20534;-44
2021/07/04 05:15:50;;;;;;;12.77;8.95;;;;;;;23.42;86.26;98597.78;3470562;28;20102;-44
2021/07/04 05:17:31;;;;;;;13.20;9.73;;;;;;;23.48;83.76;98594.78;3473022;28;20044;-44
2021/07/04 05:19:14;;;;;;;12.80;9.88;;;;;;;23.52;82.66;98601.63;3469710;28;20053;-44
2021/07/04 05:20:55;;;;;;;11.65;7.82;;;;;;;23.59;84.24;98595.94;3475930;28;20099;-43
2021/07/04 05:22:36;;;;;;;11.95;9.73;;;;;;;23.62;82.43;98604.56;3482134;28;20523;-44
2021/07/04 05:24:18;;;;;;;10.23;8.27;;;;;;;23.66;82.17;98603.47;3479153;28;20137;-43
2021/07/04 05:25:59;;;;;;;13.05;8.85;;;;;;;23.70;83.07;98605.00;3480620;28;20132;-45
2021/07/04 05:27:42;;;;;;;13.65;10.38;;;;;;;23.71;81.01;98604.06;3481661;28;20072;-45
2021/07/04 05:29:23;;;;;;;12.10;9.52;;;;;;;23.75;82.03;98607.41;3476800;28;20060;-44
2021/07/04 05:31:04;;;;;;;11.95;10.38;;;;;;;23.80;82.42;98609.75;3482545;28;20049;-44
2021/07/04 05:32:46;;;;;;;11.80;10.60;;;;;;;23.89;83.17;98606.59;3479213;28;20426;-44
2021/07/04 05:34:27;;;;;;;16.33;10.90;;;;;;;23.96;81.26;98607.06;3482109;28;20068;-45
2021/07/04 05:36:09;;;;;;;16.50;12.23;;;;;;;24.02;80.17;98607.56;3478181;28;20095;-45
2021/07/04 05:37:50;;;;;;;15.15;11.45;;;;;;;24.12;81.69;98607.94;3479837;28;20053;-44
2021/07/04 05:39:32;;;;;;;16.40;11.15;;;;;;;24.17;80.27;98611.19;3480787;28;20059;-44
2021/07/04 05:41:15;;;;;;;13.05;11.25;;;;;;;24.15;79.62;98605.09;3477799;28;20131;-44
2021/07/04 05:42:57;;;;;;;14.90;12.68;;;;;;;24.11;77.82;98606.22;3468675;28;20092;-45
2021/07/04 05:44:38;;;;;;;14.75;13.00;;;;;;;24.06;78.88;98608.28;3472123;28;20069;-44
2021/07/04 05:46:19;;;;;;;15.52;12.80;;;;;;;24.06;80.60;98605.63;3468918;28;20099;-44
2021/07/04 05:48:01;;;;;;;14.20;12.60;;;;;;;24.15;80.31;98605.09;3478121;28;20067;-46
2021/07/04 05:49:42;;;;;;;16.42;14.07;;;;;;;24.22;80.02;98605.59;3479524;28;20053;-44
2021/07/04 05:51:24;;;;;;;15.25;12.15;;;;;;;24.22;78.13;98601.13;3480607;28;20521;-45
2021/07/04 05:53:06;;;;;;;16.38;12.82;;;;;;;24.28;82.07;98599.94;3474867;28;20576;-45
2021/07/04 05:54:47;;;;;;;14.77;12.60;;;;;;;24.33;79.59;98594.34;3469099;28;20513;-45
2021/07/04 05:56:28;;;;;;;16.52;12.68;;;;;;;24.33;77.90;98591.69;3470069;28;20080;-45
2021/07/04 05:58:11;;;;;;;19.02;12.75;;;;;;;24.37;78.39;98604.66;3468565;28;20068;-45
2021/07/04 05:59:53;;;;;;;14.57;12.30;;;;;;;24.39;76.97;98593.97;3480422;28;20087;-45
2021/07/04 06:01:35;;;;;;;17.33;12.00;;;;;;;24.45;78.32;98598.91;3477117;28;20088;-45
2021/07/04 06:03:16;;;;;;;15.23;11.50;;;;;;;24.58;78.94;98593.72;3482383;28;20171;-46
2021/07/04 06:04:57;;;;;;;14.68;11.02;;;;;;;24.71;77.83;98599.13;3476870;28;20076;-45
2021/07/04 06:06:39;;;;;;;14.07;11.07;;;;;;;24.78;76.24;98593.31;3482918;28;20147;-45
2021/07/04 06:08:20;;;;;;;13.68;10.35;;;;;;;24.90;75.32;98586.44;3476515;28;20143;-45
2021/07/04 06:10:03;;;;;;;13.20;10.43;;;;;;;24.98;74.72;98593.91;3480703;28;20144;-46
2021/07/04 06:11:48;;;;;;;16.85;11.50;;;;;;;25.06;74.95;98591.63;3471090;28;20111;-46
2021/07/04 06:13:30;;;;;;;14.20;10.38;;;;;;;25.09;73.40;98588.81;3470265;28;20081;-46
2021/07/04 06:15:12;;;;;;;14.73;10.75;;;;;;;25.15;73.31;98591.06;3468811;28;20084;-47
2021/07/04 06:16:54;;;;;;;13.77;11.32;;;;;;;25.21;72.49;98589.81;3472297;28;20049;-48
2021/07/04 06:18:35;;;;;;;14.23;9.98;;;;;;;25.24;73.09;98594.91;3468829;28;20056;-45
2021/07/04 06:20:18;;;;;;;13.95;11.05;;;;;;;25.38;74.30;98591.38;3476338;28;20486;-46
2021/07/04 06:21:59;;;;;;;12.77;10.73;;;;;;;25.52;74.48;98586.03;3472950;28;20514;-48
2021/07/04 06:23:40;;;;;;;12.75;10.75;;;;;;;25.62;71.82;98588.09;3479728;28;20474;-45
2021/07/04 06:25:22;;;;;;;11.00;9.77;;;;;;;25.68;71.09;98588.56;3474198;28;20075;-48
2021/07/04 06:27:04;;;;;;;13.98;9.85;;;;;;;25.77;72.39;98592.41;3468911;28;20065;-45
2021/07/04 06:28:46;;;;;;;12.25;10.68;;;;;;;25.82;70.55;98582.34;3474539;28;20485;-45
2021/07/04 06:30:28;;;;;;;14.45;10.52;;;;;;;25.96;70.87;98584.06;3481018;28;20048;-45
2021/07/04 06:32:09;;;;;;;12.63;10.07;;;;;;;26.07;71.46;98581.53;3478233;28;20049;-48
2021/07/04 06:33:56;;;;;;;13.05;10.25;;;;;;;26.15;71.22;98583.69;3480620;28;20413;-44
2021/07/04 06:35:38;;;;;;;13.07;9.88;;;;;;;26.22;70.53;98576.13;3480645;28;20080;-45
2021/07/04 06:37:19;;;;;;;11.90;10.60;;;;;;;26.24;67.90;98569.78;3477877;28;20474;-45
2021/07/04 06:39:00;;;;;;;10.70;9.20;;;;;;;26.28;68.06;98575.75;3468810;28;20126;-45
2021/07/04 06:40:42;;;;;;;12.35;10.20;;;;;;;26.27;68.29;98579.34;3475304;28;20080;-44
2021/07/04 06:42:23;;;;;;;13.73;9.60;;;;;;;26.23;67.80;98575.19;3482028;28;20064;-44
2021/07/04 06:44:05;;;;;;;14.82;9.57;;;;;;;26.27;67.49;98576.69;3471793;28;20088;-45
2021/07/04 06:45:47;;;;;;;11.55;8.50;;;;;;;26.33;66.08;98574.47;3468616;28;20077;-46
2021/07/04 06:47:28;;;;;;;10.55;8.50;;;;;;;26.39;67.04;98583.84;3480405;28;20045;-45
2021/07/04 06:49:10;;;;;;;12.48;9.00;;;;;;;26.51;70.46;98575.00;3477766;28;20144;-45
2021/07/04 06:50:51;;;;;;;11.48;9.40;;;;;;;26.65;67.54;98578.53;3468676;28;20223;-44
2021/07/04 06:52:33;;;;;;;11.63;9.95;;;;;;;26.82;67.25;98580.84;3468482;28;20084;-46
2021/07/04 06:54:15;;;;;;;11.65;9.98;;;;;;;26.92;66.17;98581.03;3468315;28;20505;-44
2021/07/04 06:55:56;;;;;;;12.05;10.50;;;;;;;27.02;65.49;98576.78;3472261;28;20049;-44
2021/07/04 06:57:38;;;;;;;10.90;8.90;;;;;;;27.10;65.10;98576.22;3470106;28;20333;-43
2021/07/04 06:59:20;;;;;;;12.63;9.90;;;;;;;27.00;64.41;98580.53;3479957;28;20072;-44
2021/07/04 07:01:01;;;;;;;13.20;10.73;;;;;;;26.79;65.16;98583.72;3476836;28;20076;-44
2021/07/04 07:02:43;;;;;;;12.77;10.57;;;;;;;26.74;66.03;98575.22;3468291;28;20545;-43
2021/07/04 07:04:25;;;;;;;11.32;9.52;;;;;;;26.75;66.32;98579.59;3471579;28;20424;-44
2021/07/04 07:06:07;;;;;;;13.23;9.52;;;;;;;26.83;65.61;98582.53;3468738;28;20057;-43
2021/07/04 07:07:48;;;;;;;11.82;9.02;;;;;;;26.95;65.47;98588.00;3478148;28;20083;-43
2021/07/04 07:09:30;;;;;;;14.60;9.88;;;;;;;27.10;64.01;98584.22;3479515;28;20454;-44
2021/07/04 07:11:11;;;;;;;12.18;8.75;;;;;;;27.11;63.71;98585.94;3478925;28;20081;-45
2021/07/04 07:12:53;;;;;;;11.65;8.60;;;;;;;27.18;66.01;98581.88;3481147;28;20053;-45
2021/07/04 07:14:35;;;;;;;10.00;6.90;;;;;;;27.23;63.37;98587.72;3484115;28;20045;-46
2021/07/04 07:16:16;;;;;;;9.25;7.93;;;;;;;27.28;61.46;98574.91;3478582;28;20061;-45
2021/07/04 07:17:58;;;;;;;12.35;8.35;;;;;;;27.39;61.19;98576.78;3476814;28;20045;-42
2021/07/04 07:19:39;;;;;;;11.88;8.45;;;;;;;27.55;61.36;98586.34;3476073;28;20091;-43
2021/07/04 07:21:21;;;;;;;9.48;8.48;;;;;;;27.64;60.53;98586.50;3474664;28;20072;-45
2021/07/04 07:23:02;;;;;;;10.98;9.73;;;;;;;27.62;63.19;98580.44;3475926;28;20077;-44
2021/07/04 07:24:44;;;;;;;10.82;9.45;;;;;;;27.56;60.72;98580.91;3476386;28;20462;-43
2021/07/04 07:26:25;;;;;;;12.45;9.73;;;;;;;27.62;61.75;98582.28;3476460;28;20049;-43
2021/07/04 07:28:06;;;;;;;15.13;9.65;;;;;;;27.70;62.84;98584.38;3475034;28;20073;-44
2021/07/04 07:29:48;;;;;;;12.13;9.18;;;;;;;27.81;60.85;98581.75;3470338;28;20087;-46
2021/07/04 07:31:31;;;;;;;8.80;7.68;;;;;;;27.98;60.83;98573.31;3481267;28;20139;-44
2021/07/04 07:33:12;;;;;;;11.55;10.38;;;;;;;27.95;59.96;98575.38;3482388;28;20049;-43
2021/07/04 07:34:54;;;;;;;13.30;9.52;;;;;;;27.89;59.17;98574.03;3484634;28;20111;-44
2021/07/04 07:36:36;;;;;;;10.68;9.55;;;;;;;27.89;61.39;98571.34;3479695;28;20402;-44
2021/07/04 07:38:17;;;;;;;11.27;9.50;;;;;;;27.82;62.22;98578.97;3484180;28;20079;-44
2021/07/04 07:39:58;;;;;;;10.65;9.05;;;;;;;27.79;62.40;98579.22;3479246;28;20183;-43
2021/07/04 07:41:40;;;;;;;11.90;9.75;;;;;;;27.81;62.79;98579.09;3482794;28;20083;-43
2021/07/04 07:43:22;;;;;;;10.35;9.27;;;;;;;27.78;63.37;98574.84;3481014;28;20049;-42
2021/07/04 07:45:07;;;;;;;10.90;9.75;;;;;;;27.75;61.89;98583.06;3478993;28;20049;-44
2021/07/04 07:46:49;;;;;;;13.55;9.63;;;;;;;27.85;64.67;98583.22;3477762;28;20108;-43
2021/07/04 07:48:30;;;;;;;8.90;8.00;;;;;;;27.95;62.10;98578.03;3475908;28;20053;-43
2021/07/04 07:50:12;;;;;;;11.77;9.15;;;;;;;27.94;61.39;98579.03;3482520;28;20080;-43